sensor_id;sensor_type;location;lat;lon;timestamp;P1;durP1;ratioP1;P2;durP2;ratioP2
72611;SDS011;60655;52.182;4.474;2022-11-20T00:01:49;15.27;;;6.15;;
72611;SDS011;60655;52.182;4.474;2022-11-20T00:03:53;13.70;;;6.07;;
72611;SDS011;60655;52.182;4.474;2022-11-20T00:05:59;14.80;;;6.05;;
72611;SDS011;60655;52.182;4.474;2022-11-20T00:08:04;14.55;;;5.90;;
72611;SDS011;60655;52.182;4.474;2022-11-20T00:10:05;14.15;;;5.70;;
72611;SDS011;60655;52.182;4.474;2022-11-20T00:12:06;14.15;;;5.93;;
72611;SDS011;60655;52.182;4.474;2022-11-20T00:16:11;14.57;;;5.47;;
72611;SDS011;60655;52.182;4.474;2022-11-20T00:18:12;14.13;;;4.93;;
72611;SDS011;60655;52.182;4.474;2022-11-20T00:20:13;14.70;;;6.00;;
72611;SDS011;60655;52.182;4.474;2022-11-20T00:22:15;15.27;;;6.72;;
72611;SDS011;60655;52.182;4.474;2022-11-20T00:24:15;13.35;;;6.00;;
72611;SDS011;60655;52.182;4.474;2022-11-20T00:26:17;15.75;;;6.30;;
72611;SDS011;60655;52.182;4.474;2022-11-20T00:28:19;14.35;;;6.03;;
72611;SDS011;60655;52.182;4.474;2022-11-20T00:30:20;16.00;;;5.90;;
72611;SDS011;60655;52.182;4.474;2022-11-20T00:32:21;13.50;;;5.95;;
72611;SDS011;60655;52.182;4.474;2022-11-20T00:34:22;14.27;;;5.95;;
72611;SDS011;60655;52.182;4.474;2022-11-20T00:36:24;12.45;;;5.82;;
72611;SDS011;60655;52.182;4.474;2022-11-20T00:38:26;14.45;;;5.75;;
72611;SDS011;60655;52.182;4.474;2022-11-20T00:40:27;16.25;;;6.28;;
72611;SDS011;60655;52.182;4.474;2022-11-20T00:42:30;16.10;;;6.05;;
72611;SDS011;60655;52.182;4.474;2022-11-20T00:44:33;15.02;;;6.25;;
72611;SDS011;60655;52.182;4.474;2022-11-20T00:46:34;13.93;;;6.05;;
72611;SDS011;60655;52.182;4.474;2022-11-20T00:48:35;12.88;;;5.30;;
72611;SDS011;60655;52.182;4.474;2022-11-20T00:50:36;16.58;;;6.20;;
72611;SDS011;60655;52.182;4.474;2022-11-20T00:52:36;12.93;;;5.45;;
72611;SDS011;60655;52.182;4.474;2022-11-20T00:54:37;16.88;;;5.93;;
72611;SDS011;60655;52.182;4.474;2022-11-20T00:56:38;15.15;;;6.03;;
72611;SDS011;60655;52.182;4.474;2022-11-20T00:58:41;14.50;;;5.85;;
72611;SDS011;60655;52.182;4.474;2022-11-20T01:00:44;15.13;;;6.22;;
72611;SDS011;60655;52.182;4.474;2022-11-20T01:02:45;15.23;;;6.05;;
72611;SDS011;60655;52.182;4.474;2022-11-20T01:04:46;13.85;;;5.50;;
72611;SDS011;60655;52.182;4.474;2022-11-20T01:06:46;17.27;;;6.75;;
72611;SDS011;60655;52.182;4.474;2022-11-20T01:08:48;18.20;;;6.20;;
72611;SDS011;60655;52.182;4.474;2022-11-20T01:10:50;17.17;;;6.57;;
72611;SDS011;60655;52.182;4.474;2022-11-20T01:12:51;13.80;;;6.25;;
72611;SDS011;60655;52.182;4.474;2022-11-20T01:15:12;19.02;;;6.85;;
72611;SDS011;60655;52.182;4.474;2022-11-20T01:17:12;17.67;;;6.78;;
72611;SDS011;60655;52.182;4.474;2022-11-20T01:19:15;16.25;;;6.88;;
72611;SDS011;60655;52.182;4.474;2022-11-20T01:21:18;13.73;;;6.13;;
72611;SDS011;60655;52.182;4.474;2022-11-20T01:23:24;16.00;;;5.90;;
72611;SDS011;60655;52.182;4.474;2022-11-20T01:25:25;16.92;;;6.60;;
72611;SDS011;60655;52.182;4.474;2022-11-20T01:27:26;17.48;;;7.13;;
72611;SDS011;60655;52.182;4.474;2022-11-20T01:29:27;16.95;;;6.60;;
72611;SDS011;60655;52.182;4.474;2022-11-20T01:31:29;15.73;;;5.95;;
72611;SDS011;60655;52.182;4.474;2022-11-20T01:33:31;16.80;;;6.78;;
72611;SDS011;60655;52.182;4.474;2022-11-20T01:35:32;16.90;;;7.18;;
72611;SDS011;60655;52.182;4.474;2022-11-20T01:37:33;14.20;;;5.90;;
72611;SDS011;60655;52.182;4.474;2022-11-20T01:39:34;14.50;;;5.45;;
72611;SDS011;60655;52.182;4.474;2022-11-20T01:41:35;16.60;;;6.13;;
72611;SDS011;60655;52.182;4.474;2022-11-20T01:43:55;17.33;;;6.35;;
72611;SDS011;60655;52.182;4.474;2022-11-20T01:45:58;13.57;;;5.53;;
72611;SDS011;60655;52.182;4.474;2022-11-20T01:47:59;15.82;;;5.80;;
72611;SDS011;60655;52.182;4.474;2022-11-20T01:50:02;14.93;;;6.22;;
72611;SDS011;60655;52.182;4.474;2022-11-20T01:52:15;15.38;;;6.82;;
72611;SDS011;60655;52.182;4.474;2022-11-20T01:54:24;17.50;;;6.78;;
72611;SDS011;60655;52.182;4.474;2022-11-20T01:56:37;15.63;;;6.18;;
72611;SDS011;60655;52.182;4.474;2022-11-20T01:58:42;14.13;;;5.82;;
72611;SDS011;60655;52.182;4.474;2022-11-20T02:00:49;14.82;;;6.22;;
72611;SDS011;60655;52.182;4.474;2022-11-20T02:02:51;15.85;;;6.18;;
72611;SDS011;60655;52.182;4.474;2022-11-20T02:04:56;15.98;;;5.97;;
72611;SDS011;60655;52.182;4.474;2022-11-20T02:07:03;16.42;;;6.00;;
72611;SDS011;60655;52.182;4.474;2022-11-20T02:09:05;14.55;;;6.03;;
72611;SDS011;60655;52.182;4.474;2022-11-20T02:11:06;14.40;;;6.13;;
72611;SDS011;60655;52.182;4.474;2022-11-20T02:13:07;15.95;;;6.13;;
72611;SDS011;60655;52.182;4.474;2022-11-20T02:15:27;13.90;;;5.90;;
72611;SDS011;60655;52.182;4.474;2022-11-20T02:19:48;13.50;;;5.85;;
72611;SDS011;60655;52.182;4.474;2022-11-20T02:21:58;18.17;;;5.85;;
72611;SDS011;60655;52.182;4.474;2022-11-20T02:24:12;15.85;;;6.07;;
72611;SDS011;60655;52.182;4.474;2022-11-20T02:26:16;15.10;;;5.68;;
72611;SDS011;60655;52.182;4.474;2022-11-20T02:28:18;14.48;;;5.82;;
72611;SDS011;60655;52.182;4.474;2022-11-20T02:30:20;12.38;;;5.75;;
72611;SDS011;60655;52.182;4.474;2022-11-20T02:32:21;13.43;;;5.72;;
72611;SDS011;60655;52.182;4.474;2022-11-20T02:34:24;16.48;;;6.50;;
72611;SDS011;60655;52.182;4.474;2022-11-20T02:36:28;15.60;;;5.72;;
72611;SDS011;60655;52.182;4.474;2022-11-20T02:38:32;18.17;;;6.80;;
72611;SDS011;60655;52.182;4.474;2022-11-20T02:40:33;18.55;;;6.28;;
72611;SDS011;60655;52.182;4.474;2022-11-20T02:42:35;14.65;;;5.65;;
72611;SDS011;60655;52.182;4.474;2022-11-20T02:44:36;15.68;;;6.55;;
72611;SDS011;60655;52.182;4.474;2022-11-20T02:46:37;15.30;;;6.20;;
72611;SDS011;60655;52.182;4.474;2022-11-20T02:48:38;13.65;;;6.05;;
72611;SDS011;60655;52.182;4.474;2022-11-20T02:52:41;14.25;;;5.85;;
72611;SDS011;60655;52.182;4.474;2022-11-20T02:54:42;13.02;;;5.80;;
72611;SDS011;60655;52.182;4.474;2022-11-20T02:56:43;13.55;;;5.57;;
72611;SDS011;60655;52.182;4.474;2022-11-20T02:58:44;15.00;;;5.88;;
72611;SDS011;60655;52.182;4.474;2022-11-20T03:00:45;14.65;;;6.43;;
72611;SDS011;60655;52.182;4.474;2022-11-20T03:02:46;14.35;;;5.75;;
72611;SDS011;60655;52.182;4.474;2022-11-20T03:04:47;13.18;;;5.50;;
72611;SDS011;60655;52.182;4.474;2022-11-20T03:06:48;17.17;;;6.22;;
72611;SDS011;60655;52.182;4.474;2022-11-20T03:08:49;14.82;;;5.93;;
72611;SDS011;60655;52.182;4.474;2022-11-20T03:10:50;16.02;;;6.00;;
72611;SDS011;60655;52.182;4.474;2022-11-20T03:12:54;16.35;;;6.43;;
72611;SDS011;60655;52.182;4.474;2022-11-20T03:14:56;15.10;;;5.47;;
72611;SDS011;60655;52.182;4.474;2022-11-20T03:16:57;15.48;;;6.30;;
72611;SDS011;60655;52.182;4.474;2022-11-20T03:18:58;14.05;;;5.60;;
72611;SDS011;60655;52.182;4.474;2022-11-20T03:20:59;16.27;;;6.20;;
72611;SDS011;60655;52.182;4.474;2022-11-20T03:23:00;13.60;;;5.68;;
72611;SDS011;60655;52.182;4.474;2022-11-20T03:25:01;11.70;;;5.43;;
72611;SDS011;60655;52.182;4.474;2022-11-20T03:27:03;11.63;;;5.50;;
72611;SDS011;60655;52.182;4.474;2022-11-20T03:29:04;16.15;;;6.03;;
72611;SDS011;60655;52.182;4.474;2022-11-20T03:31:06;15.32;;;5.93;;
72611;SDS011;60655;52.182;4.474;2022-11-20T03:33:09;14.57;;;6.05;;
72611;SDS011;60655;52.182;4.474;2022-11-20T03:35:10;12.10;;;5.47;;
72611;SDS011;60655;52.182;4.474;2022-11-20T03:37:11;16.20;;;5.60;;
72611;SDS011;60655;52.182;4.474;2022-11-20T03:39:12;13.48;;;5.93;;
72611;SDS011;60655;52.182;4.474;2022-11-20T03:41:14;15.18;;;6.05;;
72611;SDS011;60655;52.182;4.474;2022-11-20T03:43:23;16.33;;;6.53;;
72611;SDS011;60655;52.182;4.474;2022-11-20T03:45:24;14.98;;;6.55;;
72611;SDS011;60655;52.182;4.474;2022-11-20T03:47:25;15.20;;;6.70;;
72611;SDS011;60655;52.182;4.474;2022-11-20T03:49:26;17.17;;;6.03;;
72611;SDS011;60655;52.182;4.474;2022-11-20T03:51:27;14.30;;;6.47;;
72611;SDS011;60655;52.182;4.474;2022-11-20T03:53:32;16.63;;;6.18;;
72611;SDS011;60655;52.182;4.474;2022-11-20T03:55:33;14.95;;;6.47;;
72611;SDS011;60655;52.182;4.474;2022-11-20T03:57:34;14.10;;;6.25;;
72611;SDS011;60655;52.182;4.474;2022-11-20T03:59:35;14.73;;;6.15;;
72611;SDS011;60655;52.182;4.474;2022-11-20T04:01:36;15.10;;;5.82;;
72611;SDS011;60655;52.182;4.474;2022-11-20T04:03:40;16.27;;;6.55;;
72611;SDS011;60655;52.182;4.474;2022-11-20T04:05:42;13.43;;;5.35;;
72611;SDS011;60655;52.182;4.474;2022-11-20T04:07:43;13.55;;;5.68;;
72611;SDS011;60655;52.182;4.474;2022-11-20T04:09:44;15.10;;;6.43;;
72611;SDS011;60655;52.182;4.474;2022-11-20T04:11:45;15.52;;;6.72;;
72611;SDS011;60655;52.182;4.474;2022-11-20T04:13:47;18.00;;;6.75;;
72611;SDS011;60655;52.182;4.474;2022-11-20T04:15:50;16.33;;;6.53;;
72611;SDS011;60655;52.182;4.474;2022-11-20T04:17:51;15.68;;;6.70;;
72611;SDS011;60655;52.182;4.474;2022-11-20T04:19:51;17.50;;;6.60;;
72611;SDS011;60655;52.182;4.474;2022-11-20T04:21:52;14.65;;;5.88;;
72611;SDS011;60655;52.182;4.474;2022-11-20T04:23:54;15.57;;;5.88;;
72611;SDS011;60655;52.182;4.474;2022-11-20T04:26:00;15.15;;;6.05;;
72611;SDS011;60655;52.182;4.474;2022-11-20T04:28:11;14.38;;;6.57;;
72611;SDS011;60655;52.182;4.474;2022-11-20T04:30:12;13.75;;;5.68;;
72611;SDS011;60655;52.182;4.474;2022-11-20T04:32:13;16.63;;;6.60;;
72611;SDS011;60655;52.182;4.474;2022-11-20T04:34:14;14.45;;;6.00;;
72611;SDS011;60655;52.182;4.474;2022-11-20T04:36:16;15.30;;;5.95;;
72611;SDS011;60655;52.182;4.474;2022-11-20T04:38:18;14.88;;;6.13;;
72611;SDS011;60655;52.182;4.474;2022-11-20T04:40:19;15.55;;;6.18;;
72611;SDS011;60655;52.182;4.474;2022-11-20T04:42:21;18.63;;;7.60;;
72611;SDS011;60655;52.182;4.474;2022-11-20T04:44:31;15.65;;;6.55;;
72611;SDS011;60655;52.182;4.474;2022-11-20T04:46:33;15.82;;;6.20;;
72611;SDS011;60655;52.182;4.474;2022-11-20T04:48:38;18.45;;;7.55;;
72611;SDS011;60655;52.182;4.474;2022-11-20T04:50:40;14.65;;;6.30;;
72611;SDS011;60655;52.182;4.474;2022-11-20T04:52:41;15.15;;;6.57;;
72611;SDS011;60655;52.182;4.474;2022-11-20T04:54:42;15.73;;;6.82;;
72611;SDS011;60655;52.182;4.474;2022-11-20T04:56:43;17.50;;;7.22;;
72611;SDS011;60655;52.182;4.474;2022-11-20T04:58:44;16.27;;;6.82;;
72611;SDS011;60655;52.182;4.474;2022-11-20T05:00:45;16.27;;;6.97;;
72611;SDS011;60655;52.182;4.474;2022-11-20T05:02:46;15.90;;;6.65;;
72611;SDS011;60655;52.182;4.474;2022-11-20T05:04:47;13.55;;;6.13;;
72611;SDS011;60655;52.182;4.474;2022-11-20T05:06:49;18.10;;;7.03;;
72611;SDS011;60655;52.182;4.474;2022-11-20T05:08:50;17.17;;;7.20;;
72611;SDS011;60655;52.182;4.474;2022-11-20T05:10:51;14.82;;;5.95;;
72611;SDS011;60655;52.182;4.474;2022-11-20T05:12:52;18.13;;;6.75;;
72611;SDS011;60655;52.182;4.474;2022-11-20T05:14:53;18.50;;;7.15;;
72611;SDS011;60655;52.182;4.474;2022-11-20T05:16:54;20.90;;;6.35;;
72611;SDS011;60655;52.182;4.474;2022-11-20T05:18:55;17.75;;;6.50;;
72611;SDS011;60655;52.182;4.474;2022-11-20T05:20:57;15.60;;;7.03;;
72611;SDS011;60655;52.182;4.474;2022-11-20T05:22:58;15.77;;;6.57;;
72611;SDS011;60655;52.182;4.474;2022-11-20T05:24:59;13.57;;;6.00;;
72611;SDS011;60655;52.182;4.474;2022-11-20T05:27:00;16.30;;;6.65;;
72611;SDS011;60655;52.182;4.474;2022-11-20T05:29:01;16.92;;;6.95;;
72611;SDS011;60655;52.182;4.474;2022-11-20T05:31:06;19.05;;;7.15;;
72611;SDS011;60655;52.182;4.474;2022-11-20T05:33:08;14.30;;;5.78;;
72611;SDS011;60655;52.182;4.474;2022-11-20T05:35:09;17.73;;;7.13;;
72611;SDS011;60655;52.182;4.474;2022-11-20T05:37:10;17.50;;;7.00;;
72611;SDS011;60655;52.182;4.474;2022-11-20T05:39:11;17.38;;;7.53;;
72611;SDS011;60655;52.182;4.474;2022-11-20T05:41:13;18.17;;;6.43;;
72611;SDS011;60655;52.182;4.474;2022-11-20T05:43:15;18.63;;;7.35;;
72611;SDS011;60655;52.182;4.474;2022-11-20T05:45:16;19.67;;;7.22;;
72611;SDS011;60655;52.182;4.474;2022-11-20T05:47:17;17.73;;;7.13;;
72611;SDS011;60655;52.182;4.474;2022-11-20T05:49:18;15.57;;;6.82;;
72611;SDS011;60655;52.182;4.474;2022-11-20T05:51:19;16.23;;;6.30;;
72611;SDS011;60655;52.182;4.474;2022-11-20T05:55:21;12.68;;;5.72;;
72611;SDS011;60655;52.182;4.474;2022-11-20T05:57:22;14.43;;;5.70;;
72611;SDS011;60655;52.182;4.474;2022-11-20T05:59:23;17.48;;;6.80;;
72611;SDS011;60655;52.182;4.474;2022-11-20T06:01:24;16.23;;;7.13;;
72611;SDS011;60655;52.182;4.474;2022-11-20T06:03:26;15.48;;;6.85;;
72611;SDS011;60655;52.182;4.474;2022-11-20T06:05:27;18.77;;;7.07;;
72611;SDS011;60655;52.182;4.474;2022-11-20T06:07:28;16.17;;;6.05;;
72611;SDS011;60655;52.182;4.474;2022-11-20T06:09:29;16.70;;;7.28;;
72611;SDS011;60655;52.182;4.474;2022-11-20T06:11:30;19.25;;;7.05;;
72611;SDS011;60655;52.182;4.474;2022-11-20T06:13:31;20.25;;;7.20;;
72611;SDS011;60655;52.182;4.474;2022-11-20T06:15:32;17.83;;;7.32;;
72611;SDS011;60655;52.182;4.474;2022-11-20T06:17:33;20.92;;;7.88;;
72611;SDS011;60655;52.182;4.474;2022-11-20T06:19:34;18.55;;;6.50;;
72611;SDS011;60655;52.182;4.474;2022-11-20T06:21:35;16.38;;;6.80;;
72611;SDS011;60655;52.182;4.474;2022-11-20T06:23:36;16.70;;;7.03;;
72611;SDS011;60655;52.182;4.474;2022-11-20T06:25:40;15.45;;;6.68;;
72611;SDS011;60655;52.182;4.474;2022-11-20T06:27:42;18.02;;;7.82;;
72611;SDS011;60655;52.182;4.474;2022-11-20T06:29:43;16.77;;;7.03;;
72611;SDS011;60655;52.182;4.474;2022-11-20T06:31:44;16.25;;;7.15;;
72611;SDS011;60655;52.182;4.474;2022-11-20T06:33:45;21.48;;;7.20;;
72611;SDS011;60655;52.182;4.474;2022-11-20T06:37:47;15.88;;;6.15;;
72611;SDS011;60655;52.182;4.474;2022-11-20T06:39:48;13.15;;;5.80;;
72611;SDS011;60655;52.182;4.474;2022-11-20T06:41:49;17.23;;;6.60;;
72611;SDS011;60655;52.182;4.474;2022-11-20T06:43:50;17.95;;;7.47;;
72611;SDS011;60655;52.182;4.474;2022-11-20T06:45:54;14.45;;;6.38;;
72611;SDS011;60655;52.182;4.474;2022-11-20T06:47:57;16.67;;;7.05;;
72611;SDS011;60655;52.182;4.474;2022-11-20T06:49:58;17.40;;;6.97;;
72611;SDS011;60655;52.182;4.474;2022-11-20T06:51:59;17.20;;;6.68;;
72611;SDS011;60655;52.182;4.474;2022-11-20T06:54:00;16.50;;;6.95;;
72611;SDS011;60655;52.182;4.474;2022-11-20T06:56:02;20.27;;;7.20;;
72611;SDS011;60655;52.182;4.474;2022-11-20T06:58:03;17.13;;;7.70;;
72611;SDS011;60655;52.182;4.474;2022-11-20T07:00:04;16.33;;;6.80;;
72611;SDS011;60655;52.182;4.474;2022-11-20T07:02:08;15.68;;;6.20;;
72611;SDS011;60655;52.182;4.474;2022-11-20T07:04:12;20.80;;;7.22;;
72611;SDS011;60655;52.182;4.474;2022-11-20T07:08:14;15.50;;;6.45;;
72611;SDS011;60655;52.182;4.474;2022-11-20T07:10:15;18.63;;;7.43;;
72611;SDS011;60655;52.182;4.474;2022-11-20T07:12:16;17.52;;;7.43;;
72611;SDS011;60655;52.182;4.474;2022-11-20T07:14:17;18.30;;;7.30;;
72611;SDS011;60655;52.182;4.474;2022-11-20T07:16:18;15.48;;;7.22;;
72611;SDS011;60655;52.182;4.474;2022-11-20T07:18:19;19.00;;;7.63;;
72611;SDS011;60655;52.182;4.474;2022-11-20T07:20:20;16.30;;;7.60;;
72611;SDS011;60655;52.182;4.474;2022-11-20T07:24:22;19.13;;;7.55;;
72611;SDS011;60655;52.182;4.474;2022-11-20T07:26:23;17.83;;;7.57;;
72611;SDS011;60655;52.182;4.474;2022-11-20T07:28:24;20.38;;;7.68;;
72611;SDS011;60655;52.182;4.474;2022-11-20T07:30:26;18.85;;;7.45;;
72611;SDS011;60655;52.182;4.474;2022-11-20T07:32:27;20.58;;;7.47;;
72611;SDS011;60655;52.182;4.474;2022-11-20T07:34:28;20.38;;;8.40;;
72611;SDS011;60655;52.182;4.474;2022-11-20T07:36:29;15.70;;;6.65;;
72611;SDS011;60655;52.182;4.474;2022-11-20T07:38:30;18.17;;;7.80;;
72611;SDS011;60655;52.182;4.474;2022-11-20T07:40:31;20.40;;;9.43;;
72611;SDS011;60655;52.182;4.474;2022-11-20T07:42:32;24.45;;;10.70;;
72611;SDS011;60655;52.182;4.474;2022-11-20T07:44:33;20.55;;;8.52;;
72611;SDS011;60655;52.182;4.474;2022-11-20T07:48:35;18.13;;;7.25;;
72611;SDS011;60655;52.182;4.474;2022-11-20T07:50:35;16.38;;;7.38;;
72611;SDS011;60655;52.182;4.474;2022-11-20T07:52:36;19.00;;;7.53;;
72611;SDS011;60655;52.182;4.474;2022-11-20T07:54:37;19.73;;;8.85;;
72611;SDS011;60655;52.182;4.474;2022-11-20T07:56:38;23.38;;;9.68;;
72611;SDS011;60655;52.182;4.474;2022-11-20T07:58:39;27.63;;;11.15;;
72611;SDS011;60655;52.182;4.474;2022-11-20T08:00:40;22.50;;;9.80;;
72611;SDS011;60655;52.182;4.474;2022-11-20T08:02:42;24.70;;;9.65;;
72611;SDS011;60655;52.182;4.474;2022-11-20T08:04:43;22.33;;;8.57;;
72611;SDS011;60655;52.182;4.474;2022-11-20T08:06:44;21.52;;;9.02;;
72611;SDS011;60655;52.182;4.474;2022-11-20T08:08:45;19.98;;;8.93;;
72611;SDS011;60655;52.182;4.474;2022-11-20T08:10:45;21.15;;;9.50;;
72611;SDS011;60655;52.182;4.474;2022-11-20T08:12:47;23.02;;;10.23;;
72611;SDS011;60655;52.182;4.474;2022-11-20T08:15:08;24.77;;;10.30;;
72611;SDS011;60655;52.182;4.474;2022-11-20T08:17:10;20.40;;;9.27;;
72611;SDS011;60655;52.182;4.474;2022-11-20T08:19:11;20.10;;;8.90;;
72611;SDS011;60655;52.182;4.474;2022-11-20T08:21:13;21.83;;;9.02;;
72611;SDS011;60655;52.182;4.474;2022-11-20T08:23:14;23.75;;;9.05;;
72611;SDS011;60655;52.182;4.474;2022-11-20T08:25:15;22.17;;;8.85;;
72611;SDS011;60655;52.182;4.474;2022-11-20T08:27:16;20.17;;;9.40;;
72611;SDS011;60655;52.182;4.474;2022-11-20T08:29:17;25.20;;;10.63;;
72611;SDS011;60655;52.182;4.474;2022-11-20T08:33:19;21.00;;;8.25;;
72611;SDS011;60655;52.182;4.474;2022-11-20T08:35:20;20.98;;;8.65;;
72611;SDS011;60655;52.182;4.474;2022-11-20T08:37:21;26.08;;;9.00;;
72611;SDS011;60655;52.182;4.474;2022-11-20T08:39:22;23.40;;;9.45;;
72611;SDS011;60655;52.182;4.474;2022-11-20T08:41:23;17.90;;;8.30;;
72611;SDS011;60655;52.182;4.474;2022-11-20T08:43:24;23.15;;;9.48;;
72611;SDS011;60655;52.182;4.474;2022-11-20T08:45:25;21.25;;;8.82;;
72611;SDS011;60655;52.182;4.474;2022-11-20T08:47:26;19.80;;;9.68;;
72611;SDS011;60655;52.182;4.474;2022-11-20T08:49:27;20.55;;;8.63;;
72611;SDS011;60655;52.182;4.474;2022-11-20T08:51:28;21.67;;;8.93;;
72611;SDS011;60655;52.182;4.474;2022-11-20T08:53:29;23.20;;;8.95;;
72611;SDS011;60655;52.182;4.474;2022-11-20T08:55:30;21.88;;;9.13;;
72611;SDS011;60655;52.182;4.474;2022-11-20T08:59:36;18.15;;;7.43;;
72611;SDS011;60655;52.182;4.474;2022-11-20T09:01:36;17.98;;;8.13;;
72611;SDS011;60655;52.182;4.474;2022-11-20T09:03:37;21.08;;;9.68;;
72611;SDS011;60655;52.182;4.474;2022-11-20T09:05:38;22.58;;;8.90;;
72611;SDS011;60655;52.182;4.474;2022-11-20T09:07:39;21.60;;;9.20;;
72611;SDS011;60655;52.182;4.474;2022-11-20T09:09:41;18.92;;;9.00;;
72611;SDS011;60655;52.182;4.474;2022-11-20T09:11:42;24.05;;;9.80;;
72611;SDS011;60655;52.182;4.474;2022-11-20T09:13:43;22.00;;;9.68;;
72611;SDS011;60655;52.182;4.474;2022-11-20T09:15:44;21.27;;;8.15;;
72611;SDS011;60655;52.182;4.474;2022-11-20T09:17:55;22.23;;;9.73;;
72611;SDS011;60655;52.182;4.474;2022-11-20T09:20:00;25.15;;;10.75;;
72611;SDS011;60655;52.182;4.474;2022-11-20T09:22:01;21.83;;;9.52;;
72611;SDS011;60655;52.182;4.474;2022-11-20T09:26:05;22.85;;;8.75;;
72611;SDS011;60655;52.182;4.474;2022-11-20T09:28:08;20.58;;;8.13;;
72611;SDS011;60655;52.182;4.474;2022-11-20T09:30:09;23.65;;;9.20;;
72611;SDS011;60655;52.182;4.474;2022-11-20T09:32:11;22.67;;;9.65;;
72611;SDS011;60655;52.182;4.474;2022-11-20T09:34:12;21.05;;;9.00;;
72611;SDS011;60655;52.182;4.474;2022-11-20T09:36:13;24.73;;;10.13;;
72611;SDS011;60655;52.182;4.474;2022-11-20T09:38:14;21.45;;;9.43;;
72611;SDS011;60655;52.182;4.474;2022-11-20T09:40:37;23.35;;;9.38;;
72611;SDS011;60655;52.182;4.474;2022-11-20T09:42:41;24.60;;;11.00;;
72611;SDS011;60655;52.182;4.474;2022-11-20T09:45:01;22.83;;;10.25;;
72611;SDS011;60655;52.182;4.474;2022-11-20T09:47:32;22.02;;;9.95;;
72611;SDS011;60655;52.182;4.474;2022-11-20T09:49:53;22.10;;;9.35;;
72611;SDS011;60655;52.182;4.474;2022-11-20T09:52:22;21.10;;;8.98;;
72611;SDS011;60655;52.182;4.474;2022-11-20T09:54:37;23.92;;;10.40;;
72611;SDS011;60655;52.182;4.474;2022-11-20T09:56:40;20.38;;;9.18;;
72611;SDS011;60655;52.182;4.474;2022-11-20T09:58:45;24.70;;;10.20;;
72611;SDS011;60655;52.182;4.474;2022-11-20T10:00:51;23.58;;;9.88;;
72611;SDS011;60655;52.182;4.474;2022-11-20T10:03:05;26.52;;;11.02;;
72611;SDS011;60655;52.182;4.474;2022-11-20T10:05:17;23.15;;;10.40;;
72611;SDS011;60655;52.182;4.474;2022-11-20T10:09:51;23.63;;;10.48;;
72611;SDS011;60655;52.182;4.474;2022-11-20T10:18:44;20.55;;;9.57;;
72611;SDS011;60655;52.182;4.474;2022-11-20T10:20:50;22.52;;;9.40;;
72611;SDS011;60655;52.182;4.474;2022-11-20T10:23:00;22.83;;;10.20;;
72611;SDS011;60655;52.182;4.474;2022-11-20T10:29:16;25.85;;;11.18;;
72611;SDS011;60655;52.182;4.474;2022-11-20T10:33:33;27.00;;;12.05;;
72611;SDS011;60655;52.182;4.474;2022-11-20T10:35:42;27.48;;;11.40;;
72611;SDS011;60655;52.182;4.474;2022-11-20T10:37:47;28.80;;;11.63;;
72611;SDS011;60655;52.182;4.474;2022-11-20T10:44:28;26.02;;;10.88;;
72611;SDS011;60655;52.182;4.474;2022-11-20T10:46:49;27.70;;;11.32;;
72611;SDS011;60655;52.182;4.474;2022-11-20T10:48:50;28.67;;;11.85;;
72611;SDS011;60655;52.182;4.474;2022-11-20T10:55:56;30.33;;;12.10;;
72611;SDS011;60655;52.182;4.474;2022-11-20T11:00:11;25.10;;;10.10;;
72611;SDS011;60655;52.182;4.474;2022-11-20T11:02:14;27.02;;;10.85;;
72611;SDS011;60655;52.182;4.474;2022-11-20T11:04:40;24.60;;;11.00;;
72611;SDS011;60655;52.182;4.474;2022-11-20T11:06:46;27.30;;;10.98;;
72611;SDS011;60655;52.182;4.474;2022-11-20T11:08:49;31.65;;;13.32;;
72611;SDS011;60655;52.182;4.474;2022-11-20T11:10:57;28.83;;;12.35;;
72611;SDS011;60655;52.182;4.474;2022-11-20T11:13:02;27.45;;;11.35;;
72611;SDS011;60655;52.182;4.474;2022-11-20T11:15:03;27.95;;;10.85;;
72611;SDS011;60655;52.182;4.474;2022-11-20T11:19:05;23.75;;;9.77;;
72611;SDS011;60655;52.182;4.474;2022-11-20T11:21:08;26.13;;;11.75;;
72611;SDS011;60655;52.182;4.474;2022-11-20T11:23:22;24.63;;;10.40;;
72611;SDS011;60655;52.182;4.474;2022-11-20T11:25:38;24.48;;;10.95;;
72611;SDS011;60655;52.182;4.474;2022-11-20T11:27:49;28.02;;;11.40;;
72611;SDS011;60655;52.182;4.474;2022-11-20T11:30:00;26.60;;;11.18;;
72611;SDS011;60655;52.182;4.474;2022-11-20T11:32:05;24.75;;;11.20;;
72611;SDS011;60655;52.182;4.474;2022-11-20T11:34:11;27.17;;;11.65;;
72611;SDS011;60655;52.182;4.474;2022-11-20T11:36:17;27.85;;;12.18;;
72611;SDS011;60655;52.182;4.474;2022-11-20T11:38:27;29.33;;;12.07;;
72611;SDS011;60655;52.182;4.474;2022-11-20T11:40:31;24.23;;;11.20;;
72611;SDS011;60655;52.182;4.474;2022-11-20T11:42:35;27.27;;;11.38;;
72611;SDS011;60655;52.182;4.474;2022-11-20T11:44:44;27.60;;;12.48;;
72611;SDS011;60655;52.182;4.474;2022-11-20T11:47:09;28.88;;;12.02;;
72611;SDS011;60655;52.182;4.474;2022-11-20T11:49:18;23.83;;;10.52;;
72611;SDS011;60655;52.182;4.474;2022-11-20T11:51:20;25.63;;;11.80;;
72611;SDS011;60655;52.182;4.474;2022-11-20T11:53:21;28.52;;;11.98;;
72611;SDS011;60655;52.182;4.474;2022-11-20T11:57:50;26.85;;;12.23;;
72611;SDS011;60655;52.182;4.474;2022-11-20T12:02:13;25.98;;;11.60;;
72611;SDS011;60655;52.182;4.474;2022-11-20T12:06:43;28.08;;;11.98;;
72611;SDS011;60655;52.182;4.474;2022-11-20T12:08:59;28.88;;;12.20;;
72611;SDS011;60655;52.182;4.474;2022-11-20T12:11:12;26.15;;;11.50;;
72611;SDS011;60655;52.182;4.474;2022-11-20T12:15:46;28.02;;;12.20;;
72611;SDS011;60655;52.182;4.474;2022-11-20T12:17:47;28.42;;;12.20;;
72611;SDS011;60655;52.182;4.474;2022-11-20T12:19:49;34.95;;;14.02;;
72611;SDS011;60655;52.182;4.474;2022-11-20T12:31:42;30.52;;;13.07;;
72611;SDS011;60655;52.182;4.474;2022-11-20T12:36:41;34.45;;;13.23;;
72611;SDS011;60655;52.182;4.474;2022-11-20T12:41:12;34.78;;;12.80;;
72611;SDS011;60655;52.182;4.474;2022-11-20T12:52:47;29.48;;;11.95;;
72611;SDS011;60655;52.182;4.474;2022-11-20T12:59:55;34.15;;;12.05;;
72611;SDS011;60655;52.182;4.474;2022-11-20T13:02:09;30.15;;;13.45;;
72611;SDS011;60655;52.182;4.474;2022-11-20T13:06:21;33.40;;;12.50;;
72611;SDS011;60655;52.182;4.474;2022-11-20T13:08:25;30.88;;;14.38;;
72611;SDS011;60655;52.182;4.474;2022-11-20T13:13:03;35.30;;;13.73;;
72611;SDS011;60655;52.182;4.474;2022-11-20T13:15:23;36.03;;;14.07;;
72611;SDS011;60655;52.182;4.474;2022-11-20T13:19:41;34.67;;;13.38;;
72611;SDS011;60655;52.182;4.474;2022-11-20T13:21:43;36.70;;;15.40;;
72611;SDS011;60655;52.182;4.474;2022-11-20T13:23:46;39.03;;;15.20;;
72611;SDS011;60655;52.182;4.474;2022-11-20T13:27:50;42.20;;;14.23;;
72611;SDS011;60655;52.182;4.474;2022-11-20T13:30:10;37.95;;;14.48;;
72611;SDS011;60655;52.182;4.474;2022-11-20T13:32:16;45.10;;;15.70;;
72611;SDS011;60655;52.182;4.474;2022-11-20T13:34:23;44.63;;;16.02;;
72611;SDS011;60655;52.182;4.474;2022-11-20T13:36:27;41.75;;;15.20;;
72611;SDS011;60655;52.182;4.474;2022-11-20T13:38:40;48.40;;;17.23;;
72611;SDS011;60655;52.182;4.474;2022-11-20T13:40:55;37.00;;;15.05;;
72611;SDS011;60655;52.182;4.474;2022-11-20T13:43:07;37.75;;;15.10;;
72611;SDS011;60655;52.182;4.474;2022-11-20T13:45:31;38.35;;;13.18;;
72611;SDS011;60655;52.182;4.474;2022-11-20T13:47:33;37.83;;;15.18;;
72611;SDS011;60655;52.182;4.474;2022-11-20T13:49:39;36.70;;;15.88;;
72611;SDS011;60655;52.182;4.474;2022-11-20T13:51:50;39.13;;;15.38;;